sensor_id;sensor_type;location;lat;lon;timestamp;temperature;humidity
6102;DHT22;3081;50.584;7.032;2023-05-10T00:01:46;12.90;99.90
6102;DHT22;3081;50.584;7.032;2023-05-10T00:04:13;12.90;99.90
6102;DHT22;3081;50.584;7.032;2023-05-10T00:06:40;12.90;99.90
6102;DHT22;3081;50.584;7.032;2023-05-10T00:09:07;13.00;99.90
6102;DHT22;3081;50.584;7.032;2023-05-10T00:11:34;13.00;99.90
6102;DHT22;3081;50.584;7.032;2023-05-10T00:14:01;13.00;99.90
6102;DHT22;3081;50.584;7.032;2023-05-10T00:16:29;13.00;99.90
6102;DHT22;3081;50.584;7.032;2023-05-10T00:18:56;13.00;99.90
6102;DHT22;3081;50.584;7.032;2023-05-10T00:21:23;13.10;99.90
6102;DHT22;3081;50.584;7.032;2023-05-10T00:23:50;13.00;99.90
6102;DHT22;3081;50.584;7.032;2023-05-10T00:26:17;13.10;99.90
6102;DHT22;3081;50.584;7.032;2023-05-10T00:28:43;13.10;99.90
6102;DHT22;3081;50.584;7.032;2023-05-10T00:31:10;13.10;99.90
6102;DHT22;3081;50.584;7.032;2023-05-10T00:33:39;13.10;99.90
6102;DHT22;3081;50.584;7.032;2023-05-10T00:36:06;13.10;99.90
6102;DHT22;3081;50.584;7.032;2023-05-10T00:38:33;13.10;99.90
6102;DHT22;3081;50.584;7.032;2023-05-10T00:41:00;13.10;99.90
6102;DHT22;3081;50.584;7.032;2023-05-10T00:43:28;13.10;99.90
6102;DHT22;3081;50.584;7.032;2023-05-10T00:45:55;13.10;99.90
6102;DHT22;3081;50.584;7.032;2023-05-10T00:48:22;13.10;99.90
6102;DHT22;3081;50.584;7.032;2023-05-10T00:50:50;13.00;99.90
6102;DHT22;3081;50.584;7.032;2023-05-10T00:53:17;13.00;99.90
6102;DHT22;3081;50.584;7.032;2023-05-10T00:55:45;13.00;99.90
6102;DHT22;3081;50.584;7.032;2023-05-10T00:58:12;13.00;99.90
6102;DHT22;3081;50.584;7.032;2023-05-10T01:00:41;13.00;99.90
6102;DHT22;3081;50.584;7.032;2023-05-10T01:03:09;13.00;99.90
6102;DHT22;3081;50.584;7.032;2023-05-10T01:05:36;13.00;99.90
6102;DHT22;3081;50.584;7.032;2023-05-10T01:08:05;13.00;99.90
6102;DHT22;3081;50.584;7.032;2023-05-10T01:10:32;13.00;99.90
6102;DHT22;3081;50.584;7.032;2023-05-10T01:12:59;13.00;99.90
6102;DHT22;3081;50.584;7.032;2023-05-10T01:15:27;12.90;99.90
6102;DHT22;3081;50.584;7.032;2023-05-10T01:17:54;12.80;99.90
6102;DHT22;3081;50.584;7.032;2023-05-10T01:20:21;12.70;99.90
6102;DHT22;3081;50.584;7.032;2023-05-10T01:23:28;12.70;99.90
6102;DHT22;3081;50.584;7.032;2023-05-10T01:26:13;12.60;99.90
6102;DHT22;3081;50.584;7.032;2023-05-10T01:32:16;12.50;99.90
6102;DHT22;3081;50.584;7.032;2023-05-10T01:34:51;12.50;99.90
6102;DHT22;3081;50.584;7.032;2023-05-10T01:37:23;12.50;99.90
6102;DHT22;3081;50.584;7.032;2023-05-10T01:39:57;12.50;99.90
6102;DHT22;3081;50.584;7.032;2023-05-10T01:42:30;12.50;99.90
6102;DHT22;3081;50.584;7.032;2023-05-10T01:45:07;12.60;99.90
6102;DHT22;3081;50.584;7.032;2023-05-10T01:47:43;12.60;99.90
6102;DHT22;3081;50.584;7.032;2023-05-10T01:50:19;12.70;99.90
6102;DHT22;3081;50.584;7.032;2023-05-10T01:52:53;12.70;99.90
6102;DHT22;3081;50.584;7.032;2023-05-10T01:55:25;12.80;99.90
6102;DHT22;3081;50.584;7.032;2023-05-10T01:58:00;12.80;99.90
6102;DHT22;3081;50.584;7.032;2023-05-10T02:00:29;12.90;99.90
6102;DHT22;3081;50.584;7.032;2023-05-10T02:03:00;12.90;99.90
6102;DHT22;3081;50.584;7.032;2023-05-10T02:05:30;13.00;99.90
6102;DHT22;3081;50.584;7.032;2023-05-10T02:07:59;13.00;99.90
6102;DHT22;3081;50.584;7.032;2023-05-10T02:10:28;13.00;99.90
6102;DHT22;3081;50.584;7.032;2023-05-10T02:12:55;13.00;99.90
6102;DHT22;3081;50.584;7.032;2023-05-10T02:15:25;13.00;99.90
6102;DHT22;3081;50.584;7.032;2023-05-10T02:17:55;13.00;99.90
6102;DHT22;3081;50.584;7.032;2023-05-10T02:20:25;13.00;99.90
6102;DHT22;3081;50.584;7.032;2023-05-10T02:22:54;13.00;99.90
6102;DHT22;3081;50.584;7.032;2023-05-10T02:25:23;13.00;99.90
6102;DHT22;3081;50.584;7.032;2023-05-10T02:27:53;13.00;99.90
6102;DHT22;3081;50.584;7.032;2023-05-10T02:30:22;13.00;99.90
6102;DHT22;3081;50.584;7.032;2023-05-10T02:32:49;13.00;99.90
6102;DHT22;3081;50.584;7.032;2023-05-10T02:35:17;13.00;99.90
6102;DHT22;3081;50.584;7.032;2023-05-10T02:37:46;13.10;99.90
6102;DHT22;3081;50.584;7.032;2023-05-10T02:40:15;13.10;99.90
6102;DHT22;3081;50.584;7.032;2023-05-10T02:42:44;13.10;99.90
6102;DHT22;3081;50.584;7.032;2023-05-10T02:45:14;13.00;99.90
6102;DHT22;3081;50.584;7.032;2023-05-10T02:47:41;13.00;99.90
6102;DHT22;3081;50.584;7.032;2023-05-10T02:50:09;12.90;99.90
6102;DHT22;3081;50.584;7.032;2023-05-10T02:52:40;12.90;99.90
6102;DHT22;3081;50.584;7.032;2023-05-10T02:55:12;12.80;99.90
6102;DHT22;3081;50.584;7.032;2023-05-10T02:57:46;12.80;99.90
6102;DHT22;3081;50.584;7.032;2023-05-10T03:00:14;12.80;99.90
6102;DHT22;3081;50.584;7.032;2023-05-10T03:02:41;12.70;99.90
6102;DHT22;3081;50.584;7.032;2023-05-10T03:05:08;12.70;99.90
6102;DHT22;3081;50.584;7.032;2023-05-10T03:07:35;12.70;99.90
6102;DHT22;3081;50.584;7.032;2023-05-10T03:10:03;12.80;99.90
6102;DHT22;3081;50.584;7.032;2023-05-10T03:12:47;12.80;99.90
6102;DHT22;3081;50.584;7.032;2023-05-10T03:15:22;12.80;99.90
6102;DHT22;3081;50.584;7.032;2023-05-10T03:17:55;12.80;99.90
6102;DHT22;3081;50.584;7.032;2023-05-10T03:20:26;12.90;99.90
6102;DHT22;3081;50.584;7.032;2023-05-10T03:23:02;12.90;99.90
6102;DHT22;3081;50.584;7.032;2023-05-10T03:25:31;13.00;99.90
6102;DHT22;3081;50.584;7.032;2023-05-10T03:28:01;13.00;99.90
6102;DHT22;3081;50.584;7.032;2023-05-10T03:30:28;12.90;99.90
6102;DHT22;3081;50.584;7.032;2023-05-10T03:32:55;13.00;99.90
6102;DHT22;3081;50.584;7.032;2023-05-10T03:35:23;13.00;99.90
6102;DHT22;3081;50.584;7.032;2023-05-10T03:37:50;13.10;99.90
6102;DHT22;3081;50.584;7.032;2023-05-10T03:40:17;13.10;99.90
6102;DHT22;3081;50.584;7.032;2023-05-10T03:42:44;13.10;99.90
6102;DHT22;3081;50.584;7.032;2023-05-10T03:45:12;13.10;99.90
6102;DHT22;3081;50.584;7.032;2023-05-10T03:47:39;13.10;99.90
6102;DHT22;3081;50.584;7.032;2023-05-10T03:50:07;13.20;99.90
6102;DHT22;3081;50.584;7.032;2023-05-10T03:52:35;13.20;99.90
6102;DHT22;3081;50.584;7.032;2023-05-10T03:55:05;13.20;99.90
6102;DHT22;3081;50.584;7.032;2023-05-10T03:57:32;13.20;99.90
6102;DHT22;3081;50.584;7.032;2023-05-10T03:59:59;13.20;99.90
6102;DHT22;3081;50.584;7.032;2023-05-10T04:02:27;13.20;99.90
6102;DHT22;3081;50.584;7.032;2023-05-10T04:04:55;13.20;99.90
6102;DHT22;3081;50.584;7.032;2023-05-10T04:07:22;13.20;99.90
6102;DHT22;3081;50.584;7.032;2023-05-10T04:09:49;13.10;99.90
6102;DHT22;3081;50.584;7.032;2023-05-10T04:12:16;13.10;99.90
6102;DHT22;3081;50.584;7.032;2023-05-10T04:14:43;13.10;99.90
6102;DHT22;3081;50.584;7.032;2023-05-10T04:17:10;13.10;99.90
6102;DHT22;3081;50.584;7.032;2023-05-10T04:19:38;13.10;99.90
6102;DHT22;3081;50.584;7.032;2023-05-10T04:22:05;13.10;99.90
6102;DHT22;3081;50.584;7.032;2023-05-10T04:24:32;13.20;99.90
6102;DHT22;3081;50.584;7.032;2023-05-10T04:26:59;13.20;99.90
6102;DHT22;3081;50.584;7.032;2023-05-10T04:29:26;13.20;99.90
6102;DHT22;3081;50.584;7.032;2023-05-10T04:31:54;13.20;99.90
6102;DHT22;3081;50.584;7.032;2023-05-10T04:34:22;13.20;99.90
6102;DHT22;3081;50.584;7.032;2023-05-10T04:36:50;13.20;99.90
6102;DHT22;3081;50.584;7.032;2023-05-10T04:39:17;13.30;99.90
6102;DHT22;3081;50.584;7.032;2023-05-10T04:41:44;13.30;99.90
6102;DHT22;3081;50.584;7.032;2023-05-10T04:44:10;13.30;99.90
6102;DHT22;3081;50.584;7.032;2023-05-10T04:46:37;13.30;99.90
6102;DHT22;3081;50.584;7.032;2023-05-10T04:49:04;13.30;99.90
6102;DHT22;3081;50.584;7.032;2023-05-10T04:51:31;13.30;99.90
6102;DHT22;3081;50.584;7.032;2023-05-10T04:53:59;13.30;99.90
6102;DHT22;3081;50.584;7.032;2023-05-10T04:56:26;13.30;99.90
6102;DHT22;3081;50.584;7.032;2023-05-10T04:58:53;13.30;99.90
6102;DHT22;3081;50.584;7.032;2023-05-10T05:01:20;13.40;99.90
6102;DHT22;3081;50.584;7.032;2023-05-10T05:03:48;13.50;99.90
6102;DHT22;3081;50.584;7.032;2023-05-10T05:06:15;13.60;99.90
6102;DHT22;3081;50.584;7.032;2023-05-10T05:08:42;13.60;99.90
6102;DHT22;3081;50.584;7.032;2023-05-10T05:11:10;13.60;99.90
6102;DHT22;3081;50.584;7.032;2023-05-10T05:13:37;13.70;99.90
6102;DHT22;3081;50.584;7.032;2023-05-10T05:16:05;13.70;99.90
6102;DHT22;3081;50.584;7.032;2023-05-10T05:18:32;13.60;99.90
6102;DHT22;3081;50.584;7.032;2023-05-10T05:20:59;13.70;99.90
6102;DHT22;3081;50.584;7.032;2023-05-10T05:23:26;13.70;99.90
6102;DHT22;3081;50.584;7.032;2023-05-10T05:25:53;13.80;99.90
6102;DHT22;3081;50.584;7.032;2023-05-10T05:28:22;13.80;99.90
6102;DHT22;3081;50.584;7.032;2023-05-10T05:30:49;13.80;99.90
6102;DHT22;3081;50.584;7.032;2023-05-10T05:33:15;13.90;99.90
6102;DHT22;3081;50.584;7.032;2023-05-10T05:35:42;14.10;99.90
6102;DHT22;3081;50.584;7.032;2023-05-10T05:38:13;14.20;99.90
6102;DHT22;3081;50.584;7.032;2023-05-10T05:40:40;14.30;99.90
6102;DHT22;3081;50.584;7.032;2023-05-10T05:43:07;14.40;99.90
6102;DHT22;3081;50.584;7.032;2023-05-10T05:45:35;14.50;99.90
6102;DHT22;3081;50.584;7.032;2023-05-10T05:48:02;14.50;99.90
6102;DHT22;3081;50.584;7.032;2023-05-10T05:50:29;14.70;99.90
6102;DHT22;3081;50.584;7.032;2023-05-10T05:52:56;14.70;99.90
6102;DHT22;3081;50.584;7.032;2023-05-10T05:55:23;14.60;99.90
6102;DHT22;3081;50.584;7.032;2023-05-10T05:57:51;14.70;99.90
6102;DHT22;3081;50.584;7.032;2023-05-10T06:00:18;14.70;99.90
6102;DHT22;3081;50.584;7.032;2023-05-10T06:02:46;14.80;99.90
6102;DHT22;3081;50.584;7.032;2023-05-10T06:05:13;14.90;99.90
6102;DHT22;3081;50.584;7.032;2023-05-10T06:07:40;14.90;99.90
6102;DHT22;3081;50.584;7.032;2023-05-10T06:10:08;14.90;99.90
6102;DHT22;3081;50.584;7.032;2023-05-10T06:12:35;14.90;99.90
6102;DHT22;3081;50.584;7.032;2023-05-10T06:15:03;14.90;99.90
6102;DHT22;3081;50.584;7.032;2023-05-10T06:17:30;15.00;99.90
6102;DHT22;3081;50.584;7.032;2023-05-10T06:19:58;15.10;99.90
6102;DHT22;3081;50.584;7.032;2023-05-10T06:22:25;15.00;99.90
6102;DHT22;3081;50.584;7.032;2023-05-10T06:24:52;14.90;99.90
6102;DHT22;3081;50.584;7.032;2023-05-10T06:27:19;14.70;99.90
6102;DHT22;3081;50.584;7.032;2023-05-10T06:29:46;14.70;99.90
6102;DHT22;3081;50.584;7.032;2023-05-10T06:32:13;14.70;99.90
6102;DHT22;3081;50.584;7.032;2023-05-10T06:34:40;14.60;99.90
6102;DHT22;3081;50.584;7.032;2023-05-10T06:37:10;14.60;99.90
6102;DHT22;3081;50.584;7.032;2023-05-10T06:39:37;14.60;99.90
6102;DHT22;3081;50.584;7.032;2023-05-10T06:42:04;14.60;99.90
6102;DHT22;3081;50.584;7.032;2023-05-10T06:44:31;14.60;99.90
6102;DHT22;3081;50.584;7.032;2023-05-10T06:46:58;14.60;99.90
6102;DHT22;3081;50.584;7.032;2023-05-10T06:49:24;14.60;99.90
6102;DHT22;3081;50.584;7.032;2023-05-10T06:51:51;14.60;99.90
6102;DHT22;3081;50.584;7.032;2023-05-10T06:54:20;14.60;99.90
6102;DHT22;3081;50.584;7.032;2023-05-10T06:56:47;14.70;99.90
6102;DHT22;3081;50.584;7.032;2023-05-10T06:59:14;14.90;99.90
6102;DHT22;3081;50.584;7.032;2023-05-10T07:01:41;15.10;99.90
6102;DHT22;3081;50.584;7.032;2023-05-10T07:04:09;15.30;99.90
6102;DHT22;3081;50.584;7.032;2023-05-10T07:06:35;15.40;99.90
6102;DHT22;3081;50.584;7.032;2023-05-10T07:09:02;15.40;99.90
6102;DHT22;3081;50.584;7.032;2023-05-10T07:11:31;15.50;99.90
6102;DHT22;3081;50.584;7.032;2023-05-10T07:13:57;15.50;99.90
6102;DHT22;3081;50.584;7.032;2023-05-10T07:16:25;15.60;99.90
6102;DHT22;3081;50.584;7.032;2023-05-10T07:18:52;15.60;99.90
6102;DHT22;3081;50.584;7.032;2023-05-10T07:21:19;15.60;99.90
6102;DHT22;3081;50.584;7.032;2023-05-10T07:23:46;15.70;99.90
6102;DHT22;3081;50.584;7.032;2023-05-10T07:26:13;15.80;99.90
6102;DHT22;3081;50.584;7.032;2023-05-10T07:28:42;15.90;99.90
6102;DHT22;3081;50.584;7.032;2023-05-10T07:31:08;16.10;99.90
6102;DHT22;3081;50.584;7.032;2023-05-10T07:33:36;16.20;99.90
6102;DHT22;3081;50.584;7.032;2023-05-10T07:36:02;16.20;99.90
6102;DHT22;3081;50.584;7.032;2023-05-10T07:38:29;16.20;99.90
6102;DHT22;3081;50.584;7.032;2023-05-10T07:40:56;16.20;99.90
6102;DHT22;3081;50.584;7.032;2023-05-10T07:43:23;16.30;99.90
6102;DHT22;3081;50.584;7.032;2023-05-10T07:45:51;16.30;99.90
6102;DHT22;3081;50.584;7.032;2023-05-10T07:48:18;16.30;99.90
6102;DHT22;3081;50.584;7.032;2023-05-10T07:50:45;16.40;99.90
6102;DHT22;3081;50.584;7.032;2023-05-10T07:53:12;16.40;99.90
6102;DHT22;3081;50.584;7.032;2023-05-10T07:55:39;16.30;99.90
6102;DHT22;3081;50.584;7.032;2023-05-10T07:58:06;16.20;99.90
6102;DHT22;3081;50.584;7.032;2023-05-10T08:00:34;16.00;99.90
6102;DHT22;3081;50.584;7.032;2023-05-10T08:03:02;15.90;99.90
6102;DHT22;3081;50.584;7.032;2023-05-10T08:05:29;15.90;99.90
6102;DHT22;3081;50.584;7.032;2023-05-10T08:07:56;15.80;99.90
6102;DHT22;3081;50.584;7.032;2023-05-10T08:10:24;15.60;99.90
6102;DHT22;3081;50.584;7.032;2023-05-10T08:12:51;15.60;99.90
6102;DHT22;3081;50.584;7.032;2023-05-10T08:15:18;15.50;99.90
6102;DHT22;3081;50.584;7.032;2023-05-10T08:17:45;15.50;99.90
6102;DHT22;3081;50.584;7.032;2023-05-10T08:20:14;15.50;99.90
6102;DHT22;3081;50.584;7.032;2023-05-10T08:22:42;15.50;99.90
6102;DHT22;3081;50.584;7.032;2023-05-10T08:25:09;15.60;99.90
6102;DHT22;3081;50.584;7.032;2023-05-10T08:27:36;15.80;99.90
6102;DHT22;3081;50.584;7.032;2023-05-10T08:30:03;15.80;99.90
6102;DHT22;3081;50.584;7.032;2023-05-10T08:32:30;15.90;99.90
6102;DHT22;3081;50.584;7.032;2023-05-10T08:34:58;16.00;99.90
6102;DHT22;3081;50.584;7.032;2023-05-10T08:37:29;16.00;99.90
6102;DHT22;3081;50.584;7.032;2023-05-10T08:39:57;15.90;99.90
6102;DHT22;3081;50.584;7.032;2023-05-10T08:42:26;15.80;99.90
6102;DHT22;3081;50.584;7.032;2023-05-10T08:44:55;15.80;99.90
6102;DHT22;3081;50.584;7.032;2023-05-10T08:47:23;15.60;99.90
6102;DHT22;3081;50.584;7.032;2023-05-10T08:49:52;15.50;99.90
6102;DHT22;3081;50.584;7.032;2023-05-10T08:52:20;15.40;99.90
6102;DHT22;3081;50.584;7.032;2023-05-10T08:54:49;15.40;99.90
6102;DHT22;3081;50.584;7.032;2023-05-10T08:57:16;15.40;99.90
6102;DHT22;3081;50.584;7.032;2023-05-10T08:59:43;15.30;99.90
6102;DHT22;3081;50.584;7.032;2023-05-10T09:02:11;15.10;99.90
6102;DHT22;3081;50.584;7.032;2023-05-10T09:04:39;15.00;99.90
6102;DHT22;3081;50.584;7.032;2023-05-10T09:07:06;15.00;99.90
6102;DHT22;3081;50.584;7.032;2023-05-10T09:09:34;15.00;99.90
6102;DHT22;3081;50.584;7.032;2023-05-10T09:12:03;15.00;99.90
6102;DHT22;3081;50.584;7.032;2023-05-10T09:14:31;15.00;99.90
6102;DHT22;3081;50.584;7.032;2023-05-10T09:17:00;15.00;99.90
6102;DHT22;3081;50.584;7.032;2023-05-10T09:19:28;15.00;99.90
6102;DHT22;3081;50.584;7.032;2023-05-10T09:21:55;15.00;99.90
6102;DHT22;3081;50.584;7.032;2023-05-10T09:24:25;15.20;99.90
6102;DHT22;3081;50.584;7.032;2023-05-10T09:26:52;15.50;99.90
6102;DHT22;3081;50.584;7.032;2023-05-10T09:29:20;16.30;99.90
6102;DHT22;3081;50.584;7.032;2023-05-10T09:31:49;15.90;99.90
6102;DHT22;3081;50.584;7.032;2023-05-10T09:34:20;15.80;99.90
6102;DHT22;3081;50.584;7.032;2023-05-10T09:36:55;15.80;99.90
6102;DHT22;3081;50.584;7.032;2023-05-10T09:39:30;15.90;99.90
6102;DHT22;3081;50.584;7.032;2023-05-10T09:41:58;15.90;99.90
6102;DHT22;3081;50.584;7.032;2023-05-10T09:44:27;15.90;99.90
6102;DHT22;3081;50.584;7.032;2023-05-10T09:46:54;15.90;99.90
6102;DHT22;3081;50.584;7.032;2023-05-10T09:49:21;15.90;99.90
6102;DHT22;3081;50.584;7.032;2023-05-10T09:52:00;15.70;99.90
6102;DHT22;3081;50.584;7.032;2023-05-10T09:54:27;15.70;99.90
6102;DHT22;3081;50.584;7.032;2023-05-10T09:56:54;15.80;99.90
6102;DHT22;3081;50.584;7.032;2023-05-10T09:59:21;16.10;99.90
6102;DHT22;3081;50.584;7.032;2023-05-10T10:01:53;16.40;99.90
6102;DHT22;3081;50.584;7.032;2023-05-10T10:04:22;16.80;99.90
6102;DHT22;3081;50.584;7.032;2023-05-10T10:06:59;17.20;99.90
6102;DHT22;3081;50.584;7.032;2023-05-10T10:09:27;17.70;99.90
6102;DHT22;3081;50.584;7.032;2023-05-10T10:11:54;18.50;99.90
6102;DHT22;3081;50.584;7.032;2023-05-10T10:14:22;19.20;99.90
6102;DHT22;3081;50.584;7.032;2023-05-10T10:16:49;19.30;99.90
6102;DHT22;3081;50.584;7.032;2023-05-10T10:19:18;18.70;99.90
6102;DHT22;3081;50.584;7.032;2023-05-10T10:21:45;18.50;99.90
6102;DHT22;3081;50.584;7.032;2023-05-10T10:24:12;18.20;99.90
6102;DHT22;3081;50.584;7.032;2023-05-10T10:26:40;17.80;99.90
6102;DHT22;3081;50.584;7.032;2023-05-10T10:29:15;17.50;99.90
6102;DHT22;3081;50.584;7.032;2023-05-10T10:31:47;17.30;99.90
6102;DHT22;3081;50.584;7.032;2023-05-10T10:34:25;17.20;99.90
6102;DHT22;3081;50.584;7.032;2023-05-10T10:36:52;17.20;99.90
6102;DHT22;3081;50.584;7.032;2023-05-10T10:39:20;17.30;99.90
6102;DHT22;3081;50.584;7.032;2023-05-10T10:41:51;17.70;99.90
6102;DHT22;3081;50.584;7.032;2023-05-10T10:44:26;17.90;99.90
6102;DHT22;3081;50.584;7.032;2023-05-10T10:47:07;18.00;99.90
6102;DHT22;3081;50.584;7.032;2023-05-10T10:49:48;18.00;99.90
6102;DHT22;3081;50.584;7.032;2023-05-10T10:52:22;18.20;99.90
6102;DHT22;3081;50.584;7.032;2023-05-10T10:54:52;18.10;99.90
6102;DHT22;3081;50.584;7.032;2023-05-10T10:57:21;18.00;99.90
6102;DHT22;3081;50.584;7.032;2023-05-10T10:59:53;17.90;99.90
6102;DHT22;3081;50.584;7.032;2023-05-10T11:02:46;18.00;99.90
6102;DHT22;3081;50.584;7.032;2023-05-10T11:05:32;17.90;99.90
6102;DHT22;3081;50.584;7.032;2023-05-10T11:08:06;17.80;99.90
6102;DHT22;3081;50.584;7.032;2023-05-10T11:10:33;17.80;99.90
6102;DHT22;3081;50.584;7.032;2023-05-10T11:13:01;17.60;99.90
6102;DHT22;3081;50.584;7.032;2023-05-10T11:15:29;17.80;99.90
6102;DHT22;3081;50.584;7.032;2023-05-10T11:17:56;17.80;99.90
6102;DHT22;3081;50.584;7.032;2023-05-10T11:20:24;17.90;99.90
6102;DHT22;3081;50.584;7.032;2023-05-10T11:23:11;18.00;99.90
6102;DHT22;3081;50.584;7.032;2023-05-10T11:25:41;18.50;99.90
6102;DHT22;3081;50.584;7.032;2023-05-10T11:28:09;18.80;99.90
6102;DHT22;3081;50.584;7.032;2023-05-10T11:30:38;19.00;99.90
6102;DHT22;3081;50.584;7.032;2023-05-10T11:33:05;19.10;99.90
6102;DHT22;3081;50.584;7.032;2023-05-10T11:35:37;19.10;99.90
6102;DHT22;3081;50.584;7.032;2023-05-10T11:38:06;19.00;99.90
6102;DHT22;3081;50.584;7.032;2023-05-10T11:40:33;18.80;99.90
6102;DHT22;3081;50.584;7.032;2023-05-10T11:43:00;18.70;99.90
6102;DHT22;3081;50.584;7.032;2023-05-10T11:45:27;18.40;99.90
6102;DHT22;3081;50.584;7.032;2023-05-10T11:47:55;18.40;99.90
6102;DHT22;3081;50.584;7.032;2023-05-10T11:50:22;18.40;99.90
6102;DHT22;3081;50.584;7.032;2023-05-10T11:52:52;18.30;99.90
6102;DHT22;3081;50.584;7.032;2023-05-10T11:55:19;18.30;99.90
6102;DHT22;3081;50.584;7.032;2023-05-10T11:57:46;18.20;99.90
6102;DHT22;3081;50.584;7.032;2023-05-10T12:00:14;18.20;99.90
6102;DHT22;3081;50.584;7.032;2023-05-10T12:02:41;18.30;99.90
6102;DHT22;3081;50.584;7.032;2023-05-10T12:05:09;18.50;99.90
6102;DHT22;3081;50.584;7.032;2023-05-10T12:07:36;18.60;99.90
6102;DHT22;3081;50.584;7.032;2023-05-10T12:10:07;18.70;99.90
6102;DHT22;3081;50.584;7.032;2023-05-10T12:12:38;18.80;99.90
6102;DHT22;3081;50.584;7.032;2023-05-10T12:15:06;19.20;99.90
6102;DHT22;3081;50.584;7.032;2023-05-10T12:17:37;19.70;99.90
6102;DHT22;3081;50.584;7.032;2023-05-10T12:20:15;20.10;99.90
6102;DHT22;3081;50.584;7.032;2023-05-10T12:22:44;20.20;99.90
6102;DHT22;3081;50.584;7.032;2023-05-10T12:25:13;20.10;99.90
6102;DHT22;3081;50.584;7.032;2023-05-10T12:27:40;19.80;99.90
6102;DHT22;3081;50.584;7.032;2023-05-10T12:30:08;19.60;99.90
6102;DHT22;3081;50.584;7.032;2023-05-10T12:32:39;19.50;99.90
6102;DHT22;3081;50.584;7.032;2023-05-10T12:35:07;19.60;99.90
6102;DHT22;3081;50.584;7.032;2023-05-10T12:37:34;19.70;99.90
6102;DHT22;3081;50.584;7.032;2023-05-10T12:40:06;19.60;99.90
6102;DHT22;3081;50.584;7.032;2023-05-10T12:42:36;19.80;99.90
6102;DHT22;3081;50.584;7.032;2023-05-10T12:45:04;20.10;99.90
6102;DHT22;3081;50.584;7.032;2023-05-10T12:47:32;20.50;99.90
6102;DHT22;3081;50.584;7.032;2023-05-10T12:50:00;20.80;99.90
6102;DHT22;3081;50.584;7.032;2023-05-10T12:52:28;21.10;99.90
6102;DHT22;3081;50.584;7.032;2023-05-10T12:54:55;21.20;99.90
6102;DHT22;3081;50.584;7.032;2023-05-10T12:57:22;21.40;99.90
6102;DHT22;3081;50.584;7.032;2023-05-10T12:59:50;21.10;99.90
6102;DHT22;3081;50.584;7.032;2023-05-10T13:02:17;20.60;99.90
6102;DHT22;3081;50.584;7.032;2023-05-10T13:04:44;20.00;99.90
6102;DHT22;3081;50.584;7.032;2023-05-10T13:07:12;19.50;99.90
6102;DHT22;3081;50.584;7.032;2023-05-10T13:09:39;19.00;99.90
6102;DHT22;3081;50.584;7.032;2023-05-10T13:12:06;18.60;99.90
6102;DHT22;3081;50.584;7.032;2023-05-10T13:14:33;18.30;99.90
6102;DHT22;3081;50.584;7.032;2023-05-10T13:17:01;18.00;99.90
6102;DHT22;3081;50.584;7.032;2023-05-10T13:19:28;17.90;99.90
6102;DHT22;3081;50.584;7.032;2023-05-10T13:21:55;17.60;99.90
6102;DHT22;3081;50.584;7.032;2023-05-10T13:24:22;17.40;99.90
6102;DHT22;3081;50.584;7.032;2023-05-10T13:26:49;17.30;99.90
6102;DHT22;3081;50.584;7.032;2023-05-10T13:29:16;17.10;99.90
6102;DHT22;3081;50.584;7.032;2023-05-10T13:31:43;17.00;99.90
6102;DHT22;3081;50.584;7.032;2023-05-10T13:34:12;16.90;99.90
6102;DHT22;3081;50.584;7.032;2023-05-10T13:36:39;16.60;99.90
6102;DHT22;3081;50.584;7.032;2023-05-10T13:39:06;16.20;99.90
6102;DHT22;3081;50.584;7.032;2023-05-10T13:41:32;15.60;99.90
6102;DHT22;3081;50.584;7.032;2023-05-10T13:43:59;15.10;99.90
6102;DHT22;3081;50.584;7.032;2023-05-10T13:46:26;14.90;99.90
6102;DHT22;3081;50.584;7.032;2023-05-10T13:48:54;14.70;99.90
6102;DHT22;3081;50.584;7.032;2023-05-10T13:51:23;15.00;99.90
6102;DHT22;3081;50.584;7.032;2023-05-10T13:53:50;15.40;99.90
6102;DHT22;3081;50.584;7.032;2023-05-10T13:56:17;15.80;99.90
6102;DHT22;3081;50.584;7.032;2023-05-10T13:58:44;16.20;99.90
6102;DHT22;3081;50.584;7.032;2023-05-10T14:01:11;16.60;99.90
6102;DHT22;3081;50.584;7.032;2023-05-10T14:03:38;16.90;99.90
6102;DHT22;3081;50.584;7.032;2023-05-10T14:06:05;17.10;99.90
6102;DHT22;3081;50.584;7.032;2023-05-10T14:08:35;17.30;99.90
6102;DHT22;3081;50.584;7.032;2023-05-10T14:11:02;19.10;99.90
6102;DHT22;3081;50.584;7.032;2023-05-10T14:13:29;21.40;99.90
6102;DHT22;3081;50.584;7.032;2023-05-10T14:15:56;22.20;99.90
6102;DHT22;3081;50.584;7.032;2023-05-10T14:18:24;21.60;99.90
6102;DHT22;3081;50.584;7.032;2023-05-10T14:20:51;20.50;99.90
6102;DHT22;3081;50.584;7.032;2023-05-10T14:23:18;19.40;99.90
6102;DHT22;3081;50.584;7.032;2023-05-10T14:25:51;18.70;99.90
6102;DHT22;3081;50.584;7.032;2023-05-10T14:28:18;18.10;99.90
6102;DHT22;3081;50.584;7.032;2023-05-10T14:30:46;17.60;99.90
6102;DHT22;3081;50.584;7.032;2023-05-10T14:33:13;17.20;99.90
6102;DHT22;3081;50.584;7.032;2023-05-10T14:35:40;16.80;99.90
6102;DHT22;3081;50.584;7.032;2023-05-10T14:38:07;16.40;99.90
6102;DHT22;3081;50.584;7.032;2023-05-10T14:40:34;15.80;99.90
6102;DHT22;3081;50.584;7.032;2023-05-10T14:43:02;15.20;99.90
6102;DHT22;3081;50.584;7.032;2023-05-10T14:45:29;14.80;99.90
6102;DHT22;3081;50.584;7.032;2023-05-10T14:47:57;14.70;99.90
6102;DHT22;3081;50.584;7.032;2023-05-10T14:50:24;14.60;99.90
6102;DHT22;3081;50.584;7.032;2023-05-10T14:52:51;14.60;99.90
6102;DHT22;3081;50.584;7.032;2023-05-10T14:55:18;14.50;99.90
6102;DHT22;3081;50.584;7.032;2023-05-10T14:57:45;14.30;99.90
6102;DHT22;3081;50.584;7.032;2023-05-10T15:00:17;14.10;99.90
6102;DHT22;3081;50.584;7.032;2023-05-10T15:02:44;13.90;99.90
6102;DHT22;3081;50.584;7.032;2023-05-10T15:05:11;13.80;99.90
6102;DHT22;3081;50.584;7.032;2023-05-10T15:07:38;13.90;99.90
6102;DHT22;3081;50.584;7.032;2023-05-10T15:10:06;14.00;99.90
6102;DHT22;3081;50.584;7.032;2023-05-10T15:12:33;14.50;99.90
6102;DHT22;3081;50.584;7.032;2023-05-10T15:15:00;14.80;99.90
6102;DHT22;3081;50.584;7.032;2023-05-10T15:17:29;15.30;99.90
6102;DHT22;3081;50.584;7.032;2023-05-10T15:19:55;16.00;99.90
6102;DHT22;3081;50.584;7.032;2023-05-10T15:22:22;16.90;99.90
6102;DHT22;3081;50.584;7.032;2023-05-10T15:24:49;17.40;99.90
6102;DHT22;3081;50.584;7.032;2023-05-10T15:27:16;17.20;99.90
6102;DHT22;3081;50.584;7.032;2023-05-10T15:29:43;17.10;99.90
6102;DHT22;3081;50.584;7.032;2023-05-10T15:32:10;17.00;99.90
6102;DHT22;3081;50.584;7.032;2023-05-10T15:34:38;16.90;99.90
6102;DHT22;3081;50.584;7.032;2023-05-10T15:37:05;16.80;99.90
6102;DHT22;3081;50.584;7.032;2023-05-10T15:39:32;16.70;99.90
6102;DHT22;3081;50.584;7.032;2023-05-10T15:41:59;16.60;99.90
6102;DHT22;3081;50.584;7.032;2023-05-10T15:44:27;16.40;99.90
6102;DHT22;3081;50.584;7.032;2023-05-10T15:46:53;16.30;99.90
6102;DHT22;3081;50.584;7.032;2023-05-10T15:49:21;16.00;99.90
6102;DHT22;3081;50.584;7.032;2023-05-10T15:51:49;15.80;99.90
6102;DHT22;3081;50.584;7.032;2023-05-10T15:54:16;15.50;99.90
6102;DHT22;3081;50.584;7.032;2023-05-10T15:56:43;15.20;99.90
6102;DHT22;3081;50.584;7.032;2023-05-10T15:59:10;15.00;99.90
6102;DHT22;3081;50.584;7.032;2023-05-10T16:01:37;14.80;99.90
6102;DHT22;3081;50.584;7.032;2023-05-10T16:04:04;14.70;99.90
6102;DHT22;3081;50.584;7.032;2023-05-10T16:06:30;14.60;99.90
6102;DHT22;3081;50.584;7.032;2023-05-10T16:09:00;14.60;99.90
6102;DHT22;3081;50.584;7.032;2023-05-10T16:11:27;14.60;99.90
6102;DHT22;3081;50.584;7.032;2023-05-10T16:13:53;14.60;99.90